sensor_id;sensor_type;location;lat;lon;timestamp;temperature;humidity
52295;DHT22;38243;53.212;6.574;2023-04-08T00:01:25;14.70;67.40
52295;DHT22;38243;53.212;6.574;2023-04-08T00:03:50;14.70;67.40
52295;DHT22;38243;53.212;6.574;2023-04-08T00:06:16;14.70;67.50
52295;DHT22;38243;53.212;6.574;2023-04-08T00:08:42;14.70;67.50
52295;DHT22;38243;53.212;6.574;2023-04-08T00:11:07;14.70;67.60
52295;DHT22;38243;53.212;6.574;2023-04-08T00:13:33;14.70;67.70
52295;DHT22;38243;53.212;6.574;2023-04-08T00:15:59;14.70;67.70
52295;DHT22;38243;53.212;6.574;2023-04-08T00:18:25;14.70;67.70
52295;DHT22;38243;53.212;6.574;2023-04-08T00:20:51;14.70;67.70
52295;DHT22;38243;53.212;6.574;2023-04-08T00:23:17;14.70;67.70
52295;DHT22;38243;53.212;6.574;2023-04-08T00:25:44;14.70;67.70
52295;DHT22;38243;53.212;6.574;2023-04-08T00:28:09;14.70;67.70
52295;DHT22;38243;53.212;6.574;2023-04-08T00:30:35;14.70;67.80
52295;DHT22;38243;53.212;6.574;2023-04-08T00:33:01;14.60;67.70
52295;DHT22;38243;53.212;6.574;2023-04-08T00:35:27;14.60;67.80
52295;DHT22;38243;53.212;6.574;2023-04-08T00:37:53;14.60;67.90
52295;DHT22;38243;53.212;6.574;2023-04-08T00:40:18;14.60;67.90
52295;DHT22;38243;53.212;6.574;2023-04-08T00:42:45;14.50;67.90
52295;DHT22;38243;53.212;6.574;2023-04-08T00:45:11;14.60;67.90
52295;DHT22;38243;53.212;6.574;2023-04-08T00:47:37;14.60;68.00
52295;DHT22;38243;53.212;6.574;2023-04-08T00:50:06;14.60;68.00
52295;DHT22;38243;53.212;6.574;2023-04-08T00:52:33;14.60;68.00
52295;DHT22;38243;53.212;6.574;2023-04-08T00:54:58;14.60;68.00
52295;DHT22;38243;53.212;6.574;2023-04-08T00:57:24;14.60;68.10
52295;DHT22;38243;53.212;6.574;2023-04-08T00:59:50;14.60;68.10
52295;DHT22;38243;53.212;6.574;2023-04-08T01:02:30;14.60;68.20
52295;DHT22;38243;53.212;6.574;2023-04-08T01:05:07;14.50;68.10
52295;DHT22;38243;53.212;6.574;2023-04-08T01:07:37;14.60;68.20
52295;DHT22;38243;53.212;6.574;2023-04-08T01:10:11;14.60;68.10
52295;DHT22;38243;53.212;6.574;2023-04-08T01:12:42;14.60;68.20
52295;DHT22;38243;53.212;6.574;2023-04-08T01:15:10;14.50;68.20
52295;DHT22;38243;53.212;6.574;2023-04-08T01:17:37;14.50;68.20
52295;DHT22;38243;53.212;6.574;2023-04-08T01:20:04;14.50;68.20
52295;DHT22;38243;53.212;6.574;2023-04-08T01:25:29;14.60;68.30
52295;DHT22;38243;53.212;6.574;2023-04-08T01:27:58;14.60;68.30
52295;DHT22;38243;53.212;6.574;2023-04-08T01:30:25;14.50;68.30
52295;DHT22;38243;53.212;6.574;2023-04-08T01:32:53;14.50;68.30
52295;DHT22;38243;53.212;6.574;2023-04-08T01:35:20;14.50;68.30
52295;DHT22;38243;53.212;6.574;2023-04-08T01:37:49;14.50;68.40
52295;DHT22;38243;53.212;6.574;2023-04-08T01:40:16;14.50;68.40
52295;DHT22;38243;53.212;6.574;2023-04-08T01:42:44;14.50;68.40
52295;DHT22;38243;53.212;6.574;2023-04-08T01:45:12;14.50;68.40
52295;DHT22;38243;53.212;6.574;2023-04-08T01:47:38;14.50;68.40
52295;DHT22;38243;53.212;6.574;2023-04-08T01:50:06;14.50;68.40
52295;DHT22;38243;53.212;6.574;2023-04-08T01:52:37;14.50;68.40
52295;DHT22;38243;53.212;6.574;2023-04-08T01:55:04;14.50;68.50
52295;DHT22;38243;53.212;6.574;2023-04-08T01:57:32;14.50;68.50
52295;DHT22;38243;53.212;6.574;2023-04-08T02:00:01;14.50;68.50
52295;DHT22;38243;53.212;6.574;2023-04-08T02:02:29;14.50;68.60
52295;DHT22;38243;53.212;6.574;2023-04-08T02:04:56;14.50;68.60
52295;DHT22;38243;53.212;6.574;2023-04-08T02:07:22;14.50;68.60
52295;DHT22;38243;53.212;6.574;2023-04-08T02:09:49;14.50;68.60
52295;DHT22;38243;53.212;6.574;2023-04-08T02:12:15;14.50;68.60
52295;DHT22;38243;53.212;6.574;2023-04-08T02:14:41;14.40;68.60
52295;DHT22;38243;53.212;6.574;2023-04-08T02:17:12;14.40;68.60
52295;DHT22;38243;53.212;6.574;2023-04-08T02:20:06;14.40;68.60
52295;DHT22;38243;53.212;6.574;2023-04-08T02:25:23;14.40;68.70
52295;DHT22;38243;53.212;6.574;2023-04-08T02:27:51;14.40;68.70
52295;DHT22;38243;53.212;6.574;2023-04-08T02:30:18;14.40;68.70
52295;DHT22;38243;53.212;6.574;2023-04-08T02:32:45;14.40;68.80
52295;DHT22;38243;53.212;6.574;2023-04-08T02:35:12;14.40;68.80
52295;DHT22;38243;53.212;6.574;2023-04-08T02:37:39;14.40;68.80
52295;DHT22;38243;53.212;6.574;2023-04-08T02:40:25;14.30;68.80
52295;DHT22;38243;53.212;6.574;2023-04-08T02:42:51;14.30;68.70
52295;DHT22;38243;53.212;6.574;2023-04-08T02:45:17;14.30;68.70
52295;DHT22;38243;53.212;6.574;2023-04-08T02:47:43;14.40;68.80
52295;DHT22;38243;53.212;6.574;2023-04-08T02:50:09;14.30;68.70
52295;DHT22;38243;53.212;6.574;2023-04-08T02:52:35;14.30;68.80
52295;DHT22;38243;53.212;6.574;2023-04-08T02:55:01;14.30;68.90
52295;DHT22;38243;53.212;6.574;2023-04-08T02:57:26;14.40;69.00
52295;DHT22;38243;53.212;6.574;2023-04-08T02:59:52;14.30;69.00
52295;DHT22;38243;53.212;6.574;2023-04-08T03:02:18;14.30;69.00
52295;DHT22;38243;53.212;6.574;2023-04-08T03:04:43;14.30;68.90
52295;DHT22;38243;53.212;6.574;2023-04-08T03:07:09;14.30;68.90
52295;DHT22;38243;53.212;6.574;2023-04-08T03:09:35;14.30;68.90
52295;DHT22;38243;53.212;6.574;2023-04-08T03:12:01;14.30;68.90
52295;DHT22;38243;53.212;6.574;2023-04-08T03:14:26;14.30;69.00
52295;DHT22;38243;53.212;6.574;2023-04-08T03:16:52;14.30;69.00
52295;DHT22;38243;53.212;6.574;2023-04-08T03:19:18;14.30;69.00
52295;DHT22;38243;53.212;6.574;2023-04-08T03:21:43;14.30;69.00
52295;DHT22;38243;53.212;6.574;2023-04-08T03:24:09;14.20;69.00
52295;DHT22;38243;53.212;6.574;2023-04-08T03:26:35;14.20;69.00
52295;DHT22;38243;53.212;6.574;2023-04-08T03:29:01;14.20;69.00
52295;DHT22;38243;53.212;6.574;2023-04-08T03:31:26;14.20;69.00
52295;DHT22;38243;53.212;6.574;2023-04-08T03:33:52;14.20;69.10
52295;DHT22;38243;53.212;6.574;2023-04-08T03:36:18;14.20;69.10
52295;DHT22;38243;53.212;6.574;2023-04-08T03:38:43;14.20;69.10
52295;DHT22;38243;53.212;6.574;2023-04-08T03:41:09;14.20;69.10
52295;DHT22;38243;53.212;6.574;2023-04-08T03:43:35;14.20;69.10
52295;DHT22;38243;53.212;6.574;2023-04-08T03:46:01;14.20;69.20
52295;DHT22;38243;53.212;6.574;2023-04-08T03:48:27;14.20;69.20
52295;DHT22;38243;53.212;6.574;2023-04-08T03:50:52;14.20;69.30
52295;DHT22;38243;53.212;6.574;2023-04-08T03:53:18;14.20;69.20
52295;DHT22;38243;53.212;6.574;2023-04-08T03:55:44;14.20;69.30
52295;DHT22;38243;53.212;6.574;2023-04-08T03:58:10;14.20;69.20
52295;DHT22;38243;53.212;6.574;2023-04-08T04:00:36;14.20;69.30
52295;DHT22;38243;53.212;6.574;2023-04-08T04:03:01;14.20;69.30
52295;DHT22;38243;53.212;6.574;2023-04-08T04:05:27;14.20;69.30
52295;DHT22;38243;53.212;6.574;2023-04-08T04:07:53;14.20;69.30
52295;DHT22;38243;53.212;6.574;2023-04-08T04:10:19;14.10;69.30
52295;DHT22;38243;53.212;6.574;2023-04-08T04:12:45;14.10;69.30
52295;DHT22;38243;53.212;6.574;2023-04-08T04:15:12;14.10;69.40
52295;DHT22;38243;53.212;6.574;2023-04-08T04:17:37;14.20;69.40
52295;DHT22;38243;53.212;6.574;2023-04-08T04:20:04;14.10;69.30
52295;DHT22;38243;53.212;6.574;2023-04-08T04:22:30;14.10;69.30
52295;DHT22;38243;53.212;6.574;2023-04-08T04:24:56;14.10;69.40
52295;DHT22;38243;53.212;6.574;2023-04-08T04:27:22;14.10;69.40
52295;DHT22;38243;53.212;6.574;2023-04-08T04:29:48;14.10;69.40
52295;DHT22;38243;53.212;6.574;2023-04-08T04:32:13;14.10;69.40
52295;DHT22;38243;53.212;6.574;2023-04-08T04:34:39;14.10;69.40
52295;DHT22;38243;53.212;6.574;2023-04-08T04:37:05;14.10;69.40
52295;DHT22;38243;53.212;6.574;2023-04-08T04:39:30;14.10;69.50
52295;DHT22;38243;53.212;6.574;2023-04-08T04:41:56;14.10;69.40
52295;DHT22;38243;53.212;6.574;2023-04-08T04:44:22;14.10;69.50
52295;DHT22;38243;53.212;6.574;2023-04-08T04:46:48;14.10;69.40
52295;DHT22;38243;53.212;6.574;2023-04-08T04:49:14;14.10;69.50
52295;DHT22;38243;53.212;6.574;2023-04-08T04:51:39;14.10;69.50
52295;DHT22;38243;53.212;6.574;2023-04-08T04:54:05;14.10;69.50
52295;DHT22;38243;53.212;6.574;2023-04-08T04:56:31;14.10;69.50
52295;DHT22;38243;53.212;6.574;2023-04-08T04:58:57;14.10;69.50
52295;DHT22;38243;53.212;6.574;2023-04-08T05:01:22;14.10;69.60
52295;DHT22;38243;53.212;6.574;2023-04-08T05:03:48;14.10;69.60
52295;DHT22;38243;53.212;6.574;2023-04-08T05:06:14;14.10;69.60
52295;DHT22;38243;53.212;6.574;2023-04-08T05:08:40;14.10;69.60
52295;DHT22;38243;53.212;6.574;2023-04-08T05:11:09;14.10;69.70
52295;DHT22;38243;53.212;6.574;2023-04-08T05:13:34;14.10;69.60
52295;DHT22;38243;53.212;6.574;2023-04-08T05:16:00;14.10;69.70
52295;DHT22;38243;53.212;6.574;2023-04-08T05:18:26;14.10;69.60
52295;DHT22;38243;53.212;6.574;2023-04-08T05:20:52;14.10;69.60
52295;DHT22;38243;53.212;6.574;2023-04-08T05:23:17;14.10;69.70
52295;DHT22;38243;53.212;6.574;2023-04-08T05:25:43;14.10;69.70
52295;DHT22;38243;53.212;6.574;2023-04-08T05:28:09;14.10;69.70
52295;DHT22;38243;53.212;6.574;2023-04-08T05:30:35;14.10;69.70
52295;DHT22;38243;53.212;6.574;2023-04-08T05:33:00;14.10;69.70
52295;DHT22;38243;53.212;6.574;2023-04-08T05:35:27;14.10;69.70
52295;DHT22;38243;53.212;6.574;2023-04-08T05:37:52;14.10;69.70
52295;DHT22;38243;53.212;6.574;2023-04-08T05:40:18;14.10;69.70
52295;DHT22;38243;53.212;6.574;2023-04-08T05:42:44;14.10;69.70
52295;DHT22;38243;53.212;6.574;2023-04-08T05:45:10;14.10;69.70
52295;DHT22;38243;53.212;6.574;2023-04-08T05:47:35;14.10;69.70
52295;DHT22;38243;53.212;6.574;2023-04-08T05:50:01;14.10;69.70
52295;DHT22;38243;53.212;6.574;2023-04-08T05:52:27;14.10;69.80
52295;DHT22;38243;53.212;6.574;2023-04-08T05:54:52;14.10;69.80
52295;DHT22;38243;53.212;6.574;2023-04-08T05:57:18;14.10;69.80
52295;DHT22;38243;53.212;6.574;2023-04-08T05:59:44;14.10;69.90
52295;DHT22;38243;53.212;6.574;2023-04-08T06:02:10;14.10;69.90
52295;DHT22;38243;53.212;6.574;2023-04-08T06:04:35;14.10;69.90
52295;DHT22;38243;53.212;6.574;2023-04-08T06:07:01;14.10;69.90
52295;DHT22;38243;53.212;6.574;2023-04-08T06:09:28;14.20;69.90
52295;DHT22;38243;53.212;6.574;2023-04-08T06:11:54;14.20;69.90
52295;DHT22;38243;53.212;6.574;2023-04-08T06:14:21;14.20;69.90
52295;DHT22;38243;53.212;6.574;2023-04-08T06:16:46;14.20;69.90
52295;DHT22;38243;53.212;6.574;2023-04-08T06:19:12;13.40;69.30
52295;DHT22;38243;53.212;6.574;2023-04-08T06:21:38;14.30;69.90
52295;DHT22;38243;53.212;6.574;2023-04-08T06:24:03;14.30;69.80
52295;DHT22;38243;53.212;6.574;2023-04-08T06:26:29;14.30;69.90
52295;DHT22;38243;53.212;6.574;2023-04-08T06:28:55;14.30;69.80
52295;DHT22;38243;53.212;6.574;2023-04-08T06:31:21;14.40;69.80
52295;DHT22;38243;53.212;6.574;2023-04-08T06:33:47;14.40;69.90
52295;DHT22;38243;53.212;6.574;2023-04-08T06:36:12;14.50;69.80
52295;DHT22;38243;53.212;6.574;2023-04-08T06:38:38;14.50;69.60
52295;DHT22;38243;53.212;6.574;2023-04-08T06:41:05;14.50;69.50
52295;DHT22;38243;53.212;6.574;2023-04-08T06:43:31;14.50;69.40
52295;DHT22;38243;53.212;6.574;2023-04-08T06:45:58;14.60;69.40
52295;DHT22;38243;53.212;6.574;2023-04-08T06:48:24;14.60;69.40
52295;DHT22;38243;53.212;6.574;2023-04-08T06:50:58;14.70;69.40
52295;DHT22;38243;53.212;6.574;2023-04-08T06:53:26;14.70;69.20
52295;DHT22;38243;53.212;6.574;2023-04-08T06:55:52;14.80;69.20
52295;DHT22;38243;53.212;6.574;2023-04-08T06:58:18;14.80;69.20
52295;DHT22;38243;53.212;6.574;2023-04-08T07:00:44;14.80;69.10
52295;DHT22;38243;53.212;6.574;2023-04-08T07:03:10;14.80;68.90
52295;DHT22;38243;53.212;6.574;2023-04-08T07:05:38;14.90;68.90
52295;DHT22;38243;53.212;6.574;2023-04-08T07:08:04;14.90;68.80
52295;DHT22;38243;53.212;6.574;2023-04-08T07:10:31;14.90;68.70
52295;DHT22;38243;53.212;6.574;2023-04-08T07:12:56;14.90;68.60
52295;DHT22;38243;53.212;6.574;2023-04-08T07:15:22;14.90;68.60
52295;DHT22;38243;53.212;6.574;2023-04-08T07:17:48;15.00;68.60
52295;DHT22;38243;53.212;6.574;2023-04-08T07:20:14;15.00;68.50
52295;DHT22;38243;53.212;6.574;2023-04-08T07:22:40;15.00;68.50
52295;DHT22;38243;53.212;6.574;2023-04-08T07:25:06;15.00;68.40
52295;DHT22;38243;53.212;6.574;2023-04-08T07:27:35;15.10;68.40
52295;DHT22;38243;53.212;6.574;2023-04-08T07:30:01;15.00;68.40
52295;DHT22;38243;53.212;6.574;2023-04-08T07:32:27;15.00;68.30
52295;DHT22;38243;53.212;6.574;2023-04-08T07:34:53;15.10;68.30
52295;DHT22;38243;53.212;6.574;2023-04-08T07:37:18;15.10;68.20
52295;DHT22;38243;53.212;6.574;2023-04-08T07:39:44;15.10;68.30
52295;DHT22;38243;53.212;6.574;2023-04-08T07:42:10;15.10;68.30
52295;DHT22;38243;53.212;6.574;2023-04-08T07:44:36;15.10;68.20
52295;DHT22;38243;53.212;6.574;2023-04-08T07:47:03;15.10;68.20
52295;DHT22;38243;53.212;6.574;2023-04-08T07:49:28;15.10;68.10
52295;DHT22;38243;53.212;6.574;2023-04-08T07:51:54;15.10;68.10
52295;DHT22;38243;53.212;6.574;2023-04-08T07:54:20;15.10;68.10
52295;DHT22;38243;53.212;6.574;2023-04-08T07:56:46;15.20;68.10
52295;DHT22;38243;53.212;6.574;2023-04-08T07:59:11;15.10;68.10
52295;DHT22;38243;53.212;6.574;2023-04-08T08:01:37;15.20;68.10
52295;DHT22;38243;53.212;6.574;2023-04-08T08:04:03;15.20;68.10
52295;DHT22;38243;53.212;6.574;2023-04-08T08:06:29;15.10;68.00
52295;DHT22;38243;53.212;6.574;2023-04-08T08:08:58;15.20;68.10
52295;DHT22;38243;53.212;6.574;2023-04-08T08:11:24;15.20;68.10
52295;DHT22;38243;53.212;6.574;2023-04-08T08:13:52;15.20;68.00
52295;DHT22;38243;53.212;6.574;2023-04-08T08:16:18;15.20;68.00
52295;DHT22;38243;53.212;6.574;2023-04-08T08:18:44;15.20;68.00
52295;DHT22;38243;53.212;6.574;2023-04-08T08:21:10;15.20;67.90
52295;DHT22;38243;53.212;6.574;2023-04-08T08:23:36;15.30;68.00
52295;DHT22;38243;53.212;6.574;2023-04-08T08:26:07;15.30;68.00
52295;DHT22;38243;53.212;6.574;2023-04-08T08:28:34;15.30;68.00
52295;DHT22;38243;53.212;6.574;2023-04-08T08:31:00;15.30;68.00
52295;DHT22;38243;53.212;6.574;2023-04-08T08:33:26;15.30;67.90
52295;DHT22;38243;53.212;6.574;2023-04-08T08:35:52;15.30;67.90
52295;DHT22;38243;53.212;6.574;2023-04-08T08:38:18;15.30;67.90
52295;DHT22;38243;53.212;6.574;2023-04-08T08:40:44;15.30;67.90
52295;DHT22;38243;53.212;6.574;2023-04-08T08:43:10;15.30;67.90
52295;DHT22;38243;53.212;6.574;2023-04-08T08:45:39;15.20;67.90
52295;DHT22;38243;53.212;6.574;2023-04-08T08:48:06;15.20;67.90
52295;DHT22;38243;53.212;6.574;2023-04-08T08:50:34;15.30;68.00
52295;DHT22;38243;53.212;6.574;2023-04-08T08:53:00;15.20;67.90
52295;DHT22;38243;53.212;6.574;2023-04-08T08:55:29;15.20;68.00
52295;DHT22;38243;53.212;6.574;2023-04-08T08:57:56;15.20;68.00
52295;DHT22;38243;53.212;6.574;2023-04-08T09:00:38;15.20;68.00
52295;DHT22;38243;53.212;6.574;2023-04-08T09:05:51;15.20;68.00
52295;DHT22;38243;53.212;6.574;2023-04-08T09:08:29;15.20;68.10
52295;DHT22;38243;53.212;6.574;2023-04-08T09:11:16;15.20;68.10
52295;DHT22;38243;53.212;6.574;2023-04-08T09:13:43;15.20;68.10
52295;DHT22;38243;53.212;6.574;2023-04-08T09:16:14;15.20;68.10
52295;DHT22;38243;53.212;6.574;2023-04-08T09:18:43;15.20;68.20
52295;DHT22;38243;53.212;6.574;2023-04-08T09:21:11;15.10;68.20
52295;DHT22;38243;53.212;6.574;2023-04-08T09:23:44;15.20;68.20
52295;DHT22;38243;53.212;6.574;2023-04-08T09:26:15;15.10;68.20
52295;DHT22;38243;53.212;6.574;2023-04-08T09:28:43;15.20;68.20
52295;DHT22;38243;53.212;6.574;2023-04-08T09:31:24;15.10;68.20
52295;DHT22;38243;53.212;6.574;2023-04-08T09:33:59;15.10;68.20
52295;DHT22;38243;53.212;6.574;2023-04-08T09:36:25;15.20;68.30
52295;DHT22;38243;53.212;6.574;2023-04-08T09:38:52;15.10;68.30
52295;DHT22;38243;53.212;6.574;2023-04-08T09:41:20;15.10;68.30
52295;DHT22;38243;53.212;6.574;2023-04-08T09:46:15;15.20;68.40
52295;DHT22;38243;53.212;6.574;2023-04-08T09:48:49;15.20;68.40
52295;DHT22;38243;53.212;6.574;2023-04-08T09:51:20;15.20;68.30
52295;DHT22;38243;53.212;6.574;2023-04-08T09:53:55;15.20;68.30
52295;DHT22;38243;53.212;6.574;2023-04-08T09:56:27;15.20;68.40
52295;DHT22;38243;53.212;6.574;2023-04-08T09:58:58;15.20;68.40
52295;DHT22;38243;53.212;6.574;2023-04-08T10:01:37;15.20;68.40
52295;DHT22;38243;53.212;6.574;2023-04-08T10:04:09;15.20;68.50
52295;DHT22;38243;53.212;6.574;2023-04-08T10:06:37;15.30;68.60
52295;DHT22;38243;53.212;6.574;2023-04-08T10:09:05;15.30;68.50
52295;DHT22;38243;53.212;6.574;2023-04-08T10:11:32;15.30;68.40
52295;DHT22;38243;53.212;6.574;2023-04-08T10:13:59;15.30;68.40
52295;DHT22;38243;53.212;6.574;2023-04-08T10:16:25;15.30;68.40
52295;DHT22;38243;53.212;6.574;2023-04-08T10:18:52;15.30;68.40
52295;DHT22;38243;53.212;6.574;2023-04-08T10:21:38;15.30;68.40
52295;DHT22;38243;53.212;6.574;2023-04-08T10:24:11;15.30;68.40
52295;DHT22;38243;53.212;6.574;2023-04-08T10:26:38;15.30;68.40
52295;DHT22;38243;53.212;6.574;2023-04-08T10:31:46;15.30;68.40
52295;DHT22;38243;53.212;6.574;2023-04-08T10:34:16;15.30;68.40
52295;DHT22;38243;53.212;6.574;2023-04-08T10:36:43;15.30;68.40
52295;DHT22;38243;53.212;6.574;2023-04-08T10:39:09;15.30;68.60
52295;DHT22;38243;53.212;6.574;2023-04-08T10:41:41;15.30;68.60
52295;DHT22;38243;53.212;6.574;2023-04-08T10:44:20;16.00;68.90
52295;DHT22;38243;53.212;6.574;2023-04-08T10:46:48;15.30;68.50
52295;DHT22;38243;53.212;6.574;2023-04-08T10:49:15;15.30;68.70
52295;DHT22;38243;53.212;6.574;2023-04-08T10:51:42;15.30;68.50
52295;DHT22;38243;53.212;6.574;2023-04-08T10:54:15;15.40;68.60
52295;DHT22;38243;53.212;6.574;2023-04-08T10:56:49;15.40;68.50
52295;DHT22;38243;53.212;6.574;2023-04-08T10:59:26;15.30;68.70
52295;DHT22;38243;53.212;6.574;2023-04-08T11:01:52;15.40;68.90
52295;DHT22;38243;53.212;6.574;2023-04-08T11:04:18;15.40;68.90
52295;DHT22;38243;53.212;6.574;2023-04-08T11:06:45;15.40;69.00
52295;DHT22;38243;53.212;6.574;2023-04-08T11:09:13;15.40;69.00
52295;DHT22;38243;53.212;6.574;2023-04-08T11:11:43;15.40;69.00
52295;DHT22;38243;53.212;6.574;2023-04-08T11:14:09;15.40;69.10
52295;DHT22;38243;53.212;6.574;2023-04-08T11:16:36;15.40;69.20
52295;DHT22;38243;53.212;6.574;2023-04-08T11:19:03;15.40;69.30
52295;DHT22;38243;53.212;6.574;2023-04-08T11:21:31;15.40;69.20
52295;DHT22;38243;53.212;6.574;2023-04-08T11:23:57;15.40;69.20
52295;DHT22;38243;53.212;6.574;2023-04-08T11:26:24;15.40;69.30
52295;DHT22;38243;53.212;6.574;2023-04-08T11:28:50;15.40;69.10
52295;DHT22;38243;53.212;6.574;2023-04-08T11:31:17;15.40;69.00
52295;DHT22;38243;53.212;6.574;2023-04-08T11:33:45;15.40;69.20
52295;DHT22;38243;53.212;6.574;2023-04-08T11:36:12;15.40;69.20
52295;DHT22;38243;53.212;6.574;2023-04-08T11:38:38;15.40;69.30
52295;DHT22;38243;53.212;6.574;2023-04-08T11:41:05;15.50;69.30
52295;DHT22;38243;53.212;6.574;2023-04-08T11:43:31;15.40;69.00
52295;DHT22;38243;53.212;6.574;2023-04-08T11:45:57;15.40;69.20
52295;DHT22;38243;53.212;6.574;2023-04-08T11:48:23;15.40;69.10
52295;DHT22;38243;53.212;6.574;2023-04-08T11:51:10;15.40;69.20
52295;DHT22;38243;53.212;6.574;2023-04-08T11:53:37;15.50;69.20
52295;DHT22;38243;53.212;6.574;2023-04-08T11:56:22;15.50;69.20
52295;DHT22;38243;53.212;6.574;2023-04-08T11:58:51;15.50;69.30
52295;DHT22;38243;53.212;6.574;2023-04-08T12:01:17;15.50;69.30
52295;DHT22;38243;53.212;6.574;2023-04-08T12:04:00;15.50;69.20
52295;DHT22;38243;53.212;6.574;2023-04-08T12:06:27;15.50;69.30
52295;DHT22;38243;53.212;6.574;2023-04-08T12:08:55;15.50;69.40
52295;DHT22;38243;53.212;6.574;2023-04-08T12:11:22;15.50;69.40
52295;DHT22;38243;53.212;6.574;2023-04-08T12:13:47;15.50;69.40
52295;DHT22;38243;53.212;6.574;2023-04-08T12:16:15;15.50;69.40
52295;DHT22;38243;53.212;6.574;2023-04-08T12:18:40;15.50;69.50
52295;DHT22;38243;53.212;6.574;2023-04-08T12:21:07;15.50;69.40
52295;DHT22;38243;53.212;6.574;2023-04-08T12:23:32;15.50;69.40
52295;DHT22;38243;53.212;6.574;2023-04-08T12:25:58;15.50;69.40
52295;DHT22;38243;53.212;6.574;2023-04-08T12:28:23;15.50;69.30
52295;DHT22;38243;53.212;6.574;2023-04-08T12:30:49;15.50;69.30
52295;DHT22;38243;53.212;6.574;2023-04-08T12:33:15;15.60;69.30
52295;DHT22;38243;53.212;6.574;2023-04-08T12:35:41;15.50;69.40
52295;DHT22;38243;53.212;6.574;2023-04-08T12:38:08;15.50;69.20
52295;DHT22;38243;53.212;6.574;2023-04-08T12:40:33;15.60;69.40
52295;DHT22;38243;53.212;6.574;2023-04-08T12:42:59;15.60;69.30
52295;DHT22;38243;53.212;6.574;2023-04-08T12:45:25;15.60;69.30
52295;DHT22;38243;53.212;6.574;2023-04-08T12:47:50;15.60;69.40
52295;DHT22;38243;53.212;6.574;2023-04-08T12:50:16;15.60;69.50
52295;DHT22;38243;53.212;6.574;2023-04-08T12:52:42;15.60;69.50
52295;DHT22;38243;53.212;6.574;2023-04-08T12:55:08;15.60;69.50
52295;DHT22;38243;53.212;6.574;2023-04-08T12:57:34;15.60;69.50
52295;DHT22;38243;53.212;6.574;2023-04-08T12:59:59;15.60;69.60
52295;DHT22;38243;53.212;6.574;2023-04-08T13:02:25;15.60;70.00
52295;DHT22;38243;53.212;6.574;2023-04-08T13:04:51;15.60;69.50
52295;DHT22;38243;53.212;6.574;2023-04-08T13:07:18;15.60;69.50
52295;DHT22;38243;53.212;6.574;2023-04-08T13:09:44;15.60;69.50
52295;DHT22;38243;53.212;6.574;2023-04-08T13:12:10;15.60;69.50
52295;DHT22;38243;53.212;6.574;2023-04-08T13:14:37;15.60;69.70
52295;DHT22;38243;53.212;6.574;2023-04-08T13:17:03;15.60;69.70
52295;DHT22;38243;53.212;6.574;2023-04-08T13:19:29;15.70;69.70
52295;DHT22;38243;53.212;6.574;2023-04-08T13:21:55;15.70;69.70
52295;DHT22;38243;53.212;6.574;2023-04-08T13:24:21;15.60;69.50
52295;DHT22;38243;53.212;6.574;2023-04-08T13:26:47;15.70;70.30
52295;DHT22;38243;53.212;6.574;2023-04-08T13:29:12;15.70;69.70
52295;DHT22;38243;53.212;6.574;2023-04-08T13:31:38;15.70;69.80
52295;DHT22;38243;53.212;6.574;2023-04-08T13:34:04;15.70;69.90
52295;DHT22;38243;53.212;6.574;2023-04-08T13:36:29;15.70;70.00
52295;DHT22;38243;53.212;6.574;2023-04-08T13:38:56;15.70;70.00
52295;DHT22;38243;53.212;6.574;2023-04-08T13:41:21;15.70;70.00
52295;DHT22;38243;53.212;6.574;2023-04-08T13:43:47;15.70;69.90
52295;DHT22;38243;53.212;6.574;2023-04-08T13:46:13;15.70;69.70
52295;DHT22;38243;53.212;6.574;2023-04-08T13:48:39;15.80;69.60
52295;DHT22;38243;53.212;6.574;2023-04-08T13:51:05;15.80;69.60
52295;DHT22;38243;53.212;6.574;2023-04-08T13:53:30;15.80;69.60
52295;DHT22;38243;53.212;6.574;2023-04-08T13:55:56;15.80;69.60
52295;DHT22;38243;53.212;6.574;2023-04-08T13:58:25;15.80;69.60
52295;DHT22;38243;53.212;6.574;2023-04-08T14:00:51;15.80;69.60
52295;DHT22;38243;53.212;6.574;2023-04-08T14:03:17;15.80;69.60
52295;DHT22;38243;53.212;6.574;2023-04-08T14:05:43;15.90;69.70
52295;DHT22;38243;53.212;6.574;2023-04-08T14:08:09;15.90;69.60
52295;DHT22;38243;53.212;6.574;2023-04-08T14:10:36;15.90;69.50
52295;DHT22;38243;53.212;6.574;2023-04-08T14:13:02;15.90;69.50
52295;DHT22;38243;53.212;6.574;2023-04-08T14:15:28;15.90;69.30
52295;DHT22;38243;53.212;6.574;2023-04-08T14:17:53;15.90;69.70
52295;DHT22;38243;53.212;6.574;2023-04-08T14:20:20;15.90;69.70
52295;DHT22;38243;53.212;6.574;2023-04-08T14:22:45;15.90;69.70
52295;DHT22;38243;53.212;6.574;2023-04-08T14:25:11;15.90;69.60
52295;DHT22;38243;53.212;6.574;2023-04-08T14:27:37;15.90;69.50
52295;DHT22;38243;53.212;6.574;2023-04-08T14:30:03;15.90;69.40
52295;DHT22;38243;53.212;6.574;2023-04-08T14:32:29;16.00;69.30
52295;DHT22;38243;53.212;6.574;2023-04-08T14:34:54;16.00;69.30
52295;DHT22;38243;53.212;6.574;2023-04-08T14:37:20;16.00;69.30
52295;DHT22;38243;53.212;6.574;2023-04-08T14:39:46;16.00;69.20
52295;DHT22;38243;53.212;6.574;2023-04-08T14:42:12;16.00;69.20
52295;DHT22;38243;53.212;6.574;2023-04-08T14:44:37;16.00;69.10
52295;DHT22;38243;53.212;6.574;2023-04-08T14:47:03;16.00;69.20
52295;DHT22;38243;53.212;6.574;2023-04-08T14:49:28;16.00;69.20
52295;DHT22;38243;53.212;6.574;2023-04-08T14:51:54;16.10;69.30
52295;DHT22;38243;53.212;6.574;2023-04-08T14:54:20;16.10;69.20
52295;DHT22;38243;53.212;6.574;2023-04-08T14:56:46;16.10;69.20
52295;DHT22;38243;53.212;6.574;2023-04-08T14:59:11;16.10;69.30
52295;DHT22;38243;53.212;6.574;2023-04-08T15:01:37;16.10;69.30
52295;DHT22;38243;53.212;6.574;2023-04-08T15:04:03;16.10;69.30
52295;DHT22;38243;53.212;6.574;2023-04-08T15:06:28;16.10;69.40
52295;DHT22;38243;53.212;6.574;2023-04-08T15:08:55;16.10;69.40
52295;DHT22;38243;53.212;6.574;2023-04-08T15:11:21;16.10;69.40
52295;DHT22;38243;53.212;6.574;2023-04-08T15:13:48;16.10;69.30
52295;DHT22;38243;53.212;6.574;2023-04-08T15:16:13;16.10;69.30
52295;DHT22;38243;53.212;6.574;2023-04-08T15:18:40;16.10;69.20
52295;DHT22;38243;53.212;6.574;2023-04-08T15:21:06;16.10;69.30
52295;DHT22;38243;53.212;6.574;2023-04-08T15:23:32;16.10;69.30
52295;DHT22;38243;53.212;6.574;2023-04-08T15:25:57;16.10;69.30
52295;DHT22;38243;53.212;6.574;2023-04-08T15:28:23;16.10;69.30
52295;DHT22;38243;53.212;6.574;2023-04-08T15:30:49;16.10;69.30
52295;DHT22;38243;53.212;6.574;2023-04-08T15:33:15;16.10;69.40
52295;DHT22;38243;53.212;6.574;2023-04-08T15:35:44;16.10;69.40
52295;DHT22;38243;53.212;6.574;2023-04-08T15:38:10;16.10;69.40
52295;DHT22;38243;53.212;6.574;2023-04-08T15:40:36;16.10;69.40
52295;DHT22;38243;53.212;6.574;2023-04-08T15:43:02;16.10;69.40